Time;durP1;ratioP1;P1;durP2;ratioP2;P2;SDS_P1;SDS_P2;PMS_P1;PMS_P2;Temp;Humidity;BMP_temperature;BMP_pressure;BME280_temperature;BME280_humidity;BME280_pressure;Samples;Min_cycle;Max_cycle;Signal;HPM_P1;HPM_P2
2021/10/25 00:00:09;;;;;;;4.95;2.80;;;;;;;10.30;64.62;99309.53;5094510;28;20046;-94
2021/10/25 00:02:35;;;;;;;6.18;2.88;;;;;;;10.46;65.07;99342.91;5086351;28;20127;-95
2021/10/25 00:05:01;;;;;;;5.30;3.00;;;;;;;10.38;64.66;99318.22;5094248;28;20037;-96
2021/10/25 00:07:27;;;;;;;9.25;2.90;;;;;;;10.36;65.03;99338.66;5093729;28;20048;-95
2021/10/25 00:09:53;;;;;;;8.05;2.78;;;;;;;10.07;65.05;99292.16;5100544;28;20117;-94
2021/10/25 00:12:19;;;;;;;7.63;3.47;;;;;;;10.14;64.94;99302.69;5089669;28;20494;-95
2021/10/25 00:14:47;;;;;;;7.20;3.40;;;;;;;10.29;64.89;99329.03;5088596;28;20055;-94
2021/10/25 00:17:13;;;;;;;6.95;3.03;;;;;;;10.01;65.37;99297.56;5096316;28;20062;-94
2021/10/25 00:19:39;;;;;;;11.68;3.10;;;;;;;10.03;65.38;99301.06;5095888;28;20413;-95
2021/10/25 00:22:05;;;;;;;6.90;3.00;;;;;;;10.08;65.68;99328.47;5092905;28;20051;-95
2021/10/25 00:24:31;;;;;;;5.93;3.63;;;;;;;9.94;65.89;99290.59;5094540;28;20048;-94
2021/10/25 00:26:57;;;;;;;8.30;3.70;;;;;;;10.00;65.89;99309.09;5096399;28;20044;-94
2021/10/25 00:29:23;;;;;;;5.55;2.85;;;;;;;9.92;66.06;99294.19;5089354;28;20047;-94
2021/10/25 00:31:50;;;;;;;7.95;3.60;;;;;;;9.96;65.87;99307.41;5097613;28;20040;-95
2021/10/25 00:34:16;;;;;;;7.85;3.72;;;;;;;9.98;65.88;99304.72;5094866;28;20055;-95
2021/10/25 00:36:42;;;;;;;5.95;3.35;;;;;;;10.07;65.85;99312.53;5096627;28;20043;-93
2021/10/25 00:39:09;;;;;;;6.32;3.30;;;;;;;9.93;65.78;99302.16;5098751;28;20095;-93
2021/10/25 00:41:35;;;;;;;8.30;3.42;;;;;;;9.97;65.54;99287.88;5092494;28;20040;-93
2021/10/25 00:44:01;;;;;;;8.48;3.10;;;;;;;10.16;65.40;99343.41;5089848;28;20037;-95
2021/10/25 00:46:27;;;;;;;8.95;3.78;;;;;;;10.00;65.51;99310.91;5090183;28;20047;-94
2021/10/25 00:48:54;;;;;;;6.15;3.35;;;;;;;10.01;65.25;99315.28;5102447;28;20072;-94
2021/10/25 00:51:22;;;;;;;8.85;3.15;;;;;;;10.03;65.51;99326.78;5101141;28;20089;-95
2021/10/25 00:53:48;;;;;;;5.38;3.35;;;;;;;9.98;65.15;99307.38;5102729;28;20056;-94
2021/10/25 00:56:14;;;;;;;6.18;3.33;;;;;;;10.00;65.28;99305.59;5100339;28;20056;-94
2021/10/25 00:58:40;;;;;;;7.35;3.83;;;;;;;10.13;65.22;99339.03;5097259;28;20094;-96
2021/10/25 01:01:06;;;;;;;5.78;3.15;;;;;;;9.96;65.48;99294.13;5099552;28;20033;-95
2021/10/25 01:03:33;;;;;;;6.90;3.40;;;;;;;9.93;65.67;99310.13;5092569;28;20041;-94
2021/10/25 01:06:00;;;;;;;5.75;3.50;;;;;;;9.86;65.89;99297.81;5095735;28;20044;-96
2021/10/25 01:08:30;;;;;;;5.63;3.00;;;;;;;9.87;65.65;99295.13;5099495;28;20044;-96
2021/10/25 01:10:58;;;;;;;6.63;3.13;;;;;;;9.85;66.13;99296.06;5098916;28;20089;-94
2021/10/25 01:13:24;;;;;;;7.93;3.22;;;;;;;9.83;66.70;99305.84;5104464;28;20052;-95
2021/10/25 01:15:50;;;;;;;6.40;3.30;;;;;;;9.76;66.74;99301.50;5086079;28;20045;-94
2021/10/25 01:18:16;;;;;;;8.38;3.72;;;;;;;9.65;66.76;99283.09;5089037;28;20432;-95
2021/10/25 01:20:44;;;;;;;6.93;3.45;;;;;;;9.61;67.27;99299.97;5082440;28;20058;-95
2021/10/25 01:23:10;;;;;;;8.75;3.45;;;;;;;9.62;67.36;99294.63;5092859;28;20036;-94
2021/10/25 01:25:36;;;;;;;7.03;3.60;;;;;;;9.63;67.23;99285.78;5100509;28;20032;-95
2021/10/25 01:28:03;;;;;;;5.78;3.28;;;;;;;9.70;66.95;99294.53;5096489;28;20044;-94
2021/10/25 01:30:29;;;;;;;7.80;3.20;;;;;;;9.70;67.19;99280.38;5101808;28;20048;-94
2021/10/25 01:32:55;;;;;;;11.75;3.92;;;;;;;9.66;67.28;99291.03;5091488;28;20052;-94
2021/10/25 01:35:22;;;;;;;8.52;3.65;;;;;;;9.66;67.69;99301.66;5099901;28;20548;-94
2021/10/25 01:37:49;;;;;;;8.20;3.70;;;;;;;9.65;67.76;99299.91;5096912;28;20162;-94
2021/10/25 01:40:15;;;;;;;7.15;3.97;;;;;;;9.72;67.33;99289.19;5101837;28;20071;-94
2021/10/25 01:42:42;;;;;;;6.78;3.50;;;;;;;9.85;67.08;99304.91;5102728;28;20122;-95
2021/10/25 01:45:09;;;;;;;7.50;3.42;;;;;;;9.92;67.33;99323.41;5095234;28;20051;-94
2021/10/25 01:47:36;;;;;;;7.25;3.53;;;;;;;9.78;68.43;99305.00;5092097;28;20067;-94
2021/10/25 01:50:02;;;;;;;8.00;3.60;;;;;;;9.64;67.92;99281.34;5096431;28;20489;-93
2021/10/25 01:52:29;;;;;;;7.10;3.40;;;;;;;9.64;67.71;99287.50;5092986;28;20048;-94
2021/10/25 01:54:57;;;;;;;10.75;3.95;;;;;;;9.77;67.80;99306.81;5093756;28;20056;-94
2021/10/25 01:57:22;;;;;;;10.65;4.13;;;;;;;9.79;67.39;99289.06;5098410;28;20062;-95
2021/10/25 01:59:48;;;;;;;11.70;4.00;;;;;;;9.72;67.73;99278.56;5090096;28;20048;-96
2021/10/25 02:02:15;;;;;;;7.25;3.25;;;;;;;9.65;67.73;99261.88;5093862;28;20062;-94
2021/10/25 02:04:42;;;;;;;10.07;4.50;;;;;;;9.75;67.66;99279.38;5093080;28;20058;-96
2021/10/25 02:07:08;;;;;;;6.88;3.40;;;;;;;9.80;68.00;99292.59;5099858;28;20040;-93
2021/10/25 02:09:34;;;;;;;7.63;3.63;;;;;;;9.58;68.34;99269.00;5096496;28;20048;-94
2021/10/25 02:12:01;;;;;;;8.52;3.95;;;;;;;9.54;68.47;99263.78;5098159;28;20149;-95
2021/10/25 02:14:27;;;;;;;10.80;4.40;;;;;;;9.58;68.75;99268.16;5091304;28;20037;-95
2021/10/25 02:16:54;;;;;;;12.18;3.85;;;;;;;9.53;68.74;99236.34;5085884;28;20036;-94
2021/10/25 02:19:20;;;;;;;9.60;4.20;;;;;;;9.66;68.36;99259.16;5085774;28;20094;-94
2021/10/25 02:21:46;;;;;;;7.40;3.38;;;;;;;9.73;68.20;99261.72;5093847;28;20036;-96
2021/10/25 02:24:12;;;;;;;7.53;3.83;;;;;;;9.64;68.18;99245.03;5101540;28;20128;-93
2021/10/25 02:26:38;;;;;;;10.23;3.72;;;;;;;9.79;68.56;99269.59;5100224;28;20068;-94
2021/10/25 02:29:06;;;;;;;5.75;3.47;;;;;;;9.77;68.24;99266.97;5093384;28;20090;-94
2021/10/25 02:31:32;;;;;;;7.80;3.55;;;;;;;9.68;68.20;99247.66;5095724;28;20041;-95
2021/10/25 02:33:58;;;;;;;9.25;3.85;;;;;;;9.77;68.09;99248.38;5098099;28;20081;-94
2021/10/25 02:36:24;;;;;;;5.47;3.53;;;;;;;9.87;67.74;99267.72;5091438;28;20126;-93
2021/10/25 02:38:51;;;;;;;8.88;3.50;;;;;;;9.72;68.02;99241.41;5081197;28;20104;-94
2021/10/25 02:41:17;;;;;;;7.35;3.38;;;;;;;9.71;68.17;99242.28;5083982;28;20482;-94
2021/10/25 02:43:43;;;;;;;11.13;4.00;;;;;;;9.68;68.05;99231.72;5100522;28;20044;-95
2021/10/25 02:46:10;;;;;;;6.13;3.33;;;;;;;9.71;68.29;99240.50;5090161;28;20051;-94
2021/10/25 02:48:37;;;;;;;8.02;3.80;;;;;;;9.71;68.30;99244.94;5090694;28;20066;-94
2021/10/25 02:51:05;;;;;;;6.40;3.90;;;;;;;9.76;67.98;99251.03;5084991;28;20051;-95
2021/10/25 02:53:31;;;;;;;9.35;4.13;;;;;;;9.69;67.97;99234.31;5093048;28;20036;-93
2021/10/25 02:55:57;;;;;;;6.40;3.65;;;;;;;9.81;67.68;99246.56;5081821;28;20064;-93
2021/10/25 02:58:23;;;;;;;9.73;3.80;;;;;;;9.79;67.38;99233.28;5100748;28;20134;-92
2021/10/25 03:00:50;;;;;;;5.88;3.65;;;;;;;9.79;67.45;99229.75;5091438;28;20040;-96
2021/10/25 03:03:17;;;;;;;9.50;3.33;;;;;;;9.82;67.33;99238.56;5086359;28;20498;-95
2021/10/25 03:05:44;;;;;;;8.32;3.67;;;;;;;9.73;67.57;99230.72;5085490;28;20040;-94
2021/10/25 03:08:09;;;;;;;6.53;3.50;;;;;;;9.68;67.93;99223.75;5092838;28;20068;-93
2021/10/25 03:10:35;;;;;;;8.00;3.88;;;;;;;9.81;67.75;99247.41;5093190;28;20040;-95
2021/10/25 03:13:02;;;;;;;10.60;4.47;;;;;;;9.73;67.63;99213.91;5099883;28;20047;-94
2021/10/25 03:15:28;;;;;;;7.93;3.80;;;;;;;9.84;67.67;99233.19;5091627;28;20079;-94
2021/10/25 03:17:54;;;;;;;8.18;3.83;;;;;;;9.91;67.68;99233.97;5090796;28;20544;-93
2021/10/25 03:20:22;;;;;;;6.68;3.20;;;;;;;9.86;67.69;99219.00;5093910;28;20044;-93
2021/10/25 03:22:48;;;;;;;8.75;4.18;;;;;;;9.79;67.10;99189.91;5099942;28;20408;-95
2021/10/25 03:25:14;;;;;;;5.82;3.60;;;;;;;9.94;66.77;99208.25;5097756;28;20063;-95
2021/10/25 03:27:40;;;;;;;9.55;3.80;;;;;;;9.89;66.67;99180.91;5085912;28;20044;-95
2021/10/25 03:30:08;;;;;;;5.65;2.95;;;;;;;9.87;66.76;99194.19;5087308;28;20040;-95
2021/10/25 03:32:34;;;;;;;7.57;3.40;;;;;;;10.01;66.39;99211.66;5091227;28;20230;-92
2021/10/25 03:35:00;;;;;;;10.77;3.70;;;;;;;10.03;66.15;99213.38;5081454;28;20049;-94
2021/10/25 03:37:28;;;;;;;8.00;3.10;;;;;;;9.99;65.95;99202.84;5088528;28;20063;-94
2021/10/25 03:39:54;;;;;;;5.70;3.40;;;;;;;10.13;66.01;99223.84;5100564;28;20048;-95
2021/10/25 03:51:21;;;;;;;5.72;3.13;;;;;;;10.22;64.50;99226.38;5149732;27;20369;-94
2021/10/25 03:53:54;;;;;;;6.97;3.40;;;;;;;10.24;63.88;99212.13;5101028;28;20044;-94
2021/10/25 04:29:57;;;;;;;6.47;3.20;;;;;;;10.04;64.87;99200.97;5075696;27;20391;-95
2021/10/25 04:32:23;;;;;;;6.28;3.40;;;;;;;10.01;64.89;99219.63;5075071;28;20032;-93
2021/10/25 04:34:49;;;;;;;6.25;3.03;;;;;;;9.95;64.18;99188.72;5074204;28;20490;-93
2021/10/25 04:37:14;;;;;;;6.68;3.03;;;;;;;10.03;63.67;99186.81;5075324;28;20132;-94
2021/10/25 04:39:40;;;;;;;7.15;3.35;;;;;;;10.23;63.66;99213.03;5076286;28;20051;-94
2021/10/25 04:42:06;;;;;;;5.72;2.90;;;;;;;10.16;63.09;99183.94;5074502;28;20521;-95
2021/10/25 04:44:32;;;;;;;7.40;2.85;;;;;;;10.14;63.04;99169.81;5074630;28;20044;-95
2021/10/25 04:47:00;;;;;;;5.63;3.17;;;;;;;10.23;62.97;99188.22;5074437;28;20497;-94
2021/10/25 04:49:26;;;;;;;4.70;2.85;;;;;;;10.16;62.72;99171.53;5074649;28;20032;-95
2021/10/25 04:51:52;;;;;;;8.73;3.10;;;;;;;10.27;62.53;99187.28;5074139;28;20040;-95
2021/10/25 04:54:18;;;;;;;7.15;2.70;;;;;;;10.35;62.30;99187.16;5074004;28;20041;-93
2021/10/25 04:56:44;;;;;;;5.70;3.05;;;;;;;10.43;61.88;99193.19;5075660;28;20053;-94
2021/10/25 04:59:10;;;;;;;6.53;3.35;;;;;;;10.30;61.92;99171.31;5075025;28;20045;-93
2021/10/25 05:01:36;;;;;;;8.68;3.67;;;;;;;10.41;61.58;99190.59;5073397;28;20041;-93
2021/10/25 05:04:04;;;;;;;7.05;3.45;;;;;;;10.42;61.17;99184.34;5073400;28;20036;-94
2021/10/25 05:06:30;;;;;;;7.15;2.92;;;;;;;10.33;61.35;99171.25;5073184;28;20044;-95
2021/10/25 05:08:56;;;;;;;5.72;3.10;;;;;;;10.30;61.20;99160.69;5074567;28;20029;-92
2021/10/25 05:11:23;;;;;;;7.10;2.70;;;;;;;10.28;61.48;99163.31;5073364;28;20041;-93
2021/10/25 05:13:49;;;;;;;4.20;2.72;;;;;;;10.27;61.06;99153.59;5072522;28;20049;-94
2021/10/25 05:16:16;;;;;;;6.85;2.80;;;;;;;10.31;61.82;99165.06;5081407;28;20047;-93
2021/10/25 05:18:42;;;;;;;6.57;2.78;;;;;;;10.26;61.76;99148.31;5082572;28;20045;-94
2021/10/25 05:21:27;;;;;;;5.63;2.85;;;;;;;10.23;61.86;99153.69;5082952;28;20044;-93
2021/10/25 05:23:53;;;;;;;7.50;2.80;;;;;;;10.23;61.27;99157.19;5083756;28;20052;-94
2021/10/25 05:26:19;;;;;;;4.97;2.70;;;;;;;10.24;61.85;99144.81;5076284;28;20036;-93
2021/10/25 05:28:45;;;;;;;5.80;3.13;;;;;;;10.29;61.60;99166.88;5075424;28;20053;-94
2021/10/25 05:31:11;;;;;;;4.57;2.83;;;;;;;10.17;61.82;99144.06;5076214;28;20052;-92
2021/10/25 05:33:38;;;;;;;4.63;2.72;;;;;;;10.16;61.56;99157.38;5073145;28;20045;-95
2021/10/25 05:36:05;;;;;;;4.75;2.83;;;;;;;10.32;61.89;99184.56;5074341;28;20052;-94
2021/10/25 05:38:54;;;;;;;5.35;3.13;;;;;;;10.35;61.43;99189.84;5075440;28;20067;-94
2021/10/25 05:41:27;;;;;;;8.02;3.50;;;;;;;10.18;61.73;99174.16;5060709;28;20059;-95
2021/10/25 05:44:05;;;;;;;9.63;3.10;;;;;;;10.10;61.73;99157.47;5061554;28;20442;-93
2021/10/25 05:46:32;;;;;;;8.57;3.30;;;;;;;10.10;61.84;99160.13;5061880;28;20048;-95
2021/10/25 05:49:14;;;;;;;6.78;3.35;;;;;;;10.10;61.75;99157.47;5062951;28;20036;-95
2021/10/25 05:52:04;;;;;;;6.57;3.03;;;;;;;10.25;62.02;99184.63;5062161;28;20568;-95
2021/10/25 05:54:32;;;;;;;;;;;;;;;10.29;62.11;99185.50;5060787;28;20041;-94
2021/10/25 05:56:58;;;;;;;5.95;2.90;;;;;;;10.26;61.74;99161.63;5060864;28;19928;-94
2021/10/25 05:59:26;;;;;;;4.28;2.95;;;;;;;10.28;61.60;99162.47;5060954;28;20060;-94
2021/10/25 06:04:52;;;;;;;7.05;3.47;;;;;;;10.26;62.12;99185.53;5156854;27;20365;-94
2021/10/25 06:07:18;;;;;;;8.40;3.70;;;;;;;10.17;62.41;99185.69;5160541;27;20496;-94
2021/10/25 06:09:45;;;;;;;5.55;3.42;;;;;;;10.21;62.50;99198.00;5177593;27;20034;-94
2021/10/25 06:12:16;;;;;;;6.60;3.22;;;;;;;10.21;62.11;99185.63;5161793;27;20036;-93
2021/10/25 06:14:45;;;;;;;9.35;3.70;;;;;;;10.35;61.87;99198.66;5156557;27;20114;-94
2021/10/25 06:20:12;;;;;;;8.50;3.33;;;;;;;10.48;61.39;99194.88;5135896;27;20387;-95
2021/10/25 06:22:38;;;;;;;4.75;2.88;;;;;;;10.46;61.29;99172.75;5137812;27;20058;-94
2021/10/25 06:25:05;;;;;;;6.03;2.88;;;;;;;10.67;60.92;99195.38;5135920;27;20108;-93
2021/10/25 06:27:31;;;;;;;5.18;3.42;;;;;;;10.76;60.86;99201.41;5135032;27;20035;-94
2021/10/25 06:29:57;;;;;;;5.93;3.30;;;;;;;10.72;60.60;99202.38;5136222;27;20074;-94
2021/10/25 06:32:23;;;;;;;5.60;3.00;;;;;;;10.69;60.94;99201.53;5133882;27;20043;-92
2021/10/25 06:34:51;;;;;;;6.40;3.65;;;;;;;10.69;61.00;99205.97;5136409;27;20036;-93
2021/10/25 06:37:26;;;;;;;7.57;3.10;;;;;;;10.74;60.84;99211.22;5133888;27;20585;-93
2021/10/25 06:39:54;;;;;;;6.00;2.90;;;;;;;10.83;60.26;99214.53;5134623;27;20078;-91
2021/10/25 06:42:21;;;;;;;6.78;3.30;;;;;;;10.77;60.44;99212.00;5134768;27;20062;-93
2021/10/25 06:47:49;;;;;;;6.45;3.03;;;;;;;11.07;59.88;99239.75;5135072;27;20702;-93
2021/10/25 06:50:17;;;;;;;6.67;3.30;;;;;;;11.23;59.47;99226.09;5134735;28;20078;-94
2021/10/25 06:52:48;;;;;;;5.78;3.10;;;;;;;11.22;59.11;99227.91;5135568;28;20126;-94
2021/10/25 06:55:14;;;;;;;6.65;3.40;;;;;;;11.33;58.66;99242.75;5135889;28;20151;-94
2021/10/25 06:57:42;;;;;;;7.32;3.25;;;;;;;11.53;58.44;99251.16;5136014;28;20067;-93
2021/10/25 07:00:10;;;;;;;7.30;3.90;;;;;;;11.45;58.12;99205.19;5135200;28;20676;-93
2021/10/25 07:02:36;;;;;;;6.95;3.20;;;;;;;11.74;57.42;99241.78;5135856;28;20374;-93
2021/10/25 07:05:04;;;;;;;5.22;2.83;;;;;;;11.69;57.12;99233.91;5135296;28;20039;-93
2021/10/25 07:07:30;;;;;;;4.63;3.07;;;;;;;11.77;56.94;99236.38;5134416;28;20031;-93
2021/10/25 07:09:57;;;;;;;5.85;3.20;;;;;;;11.81;57.35;99227.41;5134158;28;20492;-93
2021/10/25 07:12:24;;;;;;;4.63;2.97;;;;;;;11.86;56.61;99211.28;5134731;28;20478;-93
2021/10/25 07:14:54;;;;;;;6.03;3.33;;;;;;;11.99;55.89;99231.44;5134845;28;20043;-93
2021/10/25 08:17:52;;;;;;;7.30;3.15;;;;;;;12.99;52.98;99207.34;5106257;27;20375;-94
2021/10/25 08:20:18;;;;;;;6.63;3.58;;;;;;;13.16;52.11;99190.78;5073288;28;20056;-92
2021/10/25 08:22:44;;;;;;;8.40;3.40;;;;;;;13.38;52.43;99200.84;5073131;28;20394;-93
2021/10/25 08:25:11;;;;;;;7.65;3.55;;;;;;;13.40;51.85;99188.31;5063288;28;20043;-94
2021/10/25 08:27:37;;;;;;;5.13;3.38;;;;;;;13.67;51.73;99214.16;5072485;28;20041;-95
2021/10/25 08:30:04;;;;;;;6.13;3.10;;;;;;;13.60;51.17;99182.31;5072515;28;20041;-94
2021/10/25 08:41:03;;;;;;;6.05;3.33;;;;;;;14.00;50.57;99210.41;5108327;27;20360;-94
2021/10/25 08:43:29;;;;;;;7.47;3.03;;;;;;;13.94;50.12;99199.00;5075139;28;20045;-95
2021/10/25 08:45:58;;;;;;;8.68;3.13;;;;;;;13.89;50.33;99192.06;5073182;28;20075;-94
2021/10/25 08:48:25;;;;;;;5.70;3.33;;;;;;;13.94;50.10;99203.44;5074281;28;20098;-92
2021/10/25 08:50:51;;;;;;;5.20;3.10;;;;;;;13.88;50.07;99174.25;5072691;28;20037;-95
2021/10/25 08:53:18;;;;;;;6.15;3.15;;;;;;;14.14;50.28;99192.97;5074952;28;20049;-96
2021/10/25 08:55:47;;;;;;;6.45;3.40;;;;;;;14.32;49.49;99190.56;5075368;28;20045;-94
2021/10/25 08:58:14;;;;;;;7.35;3.28;;;;;;;14.36;48.95;99209.13;5076069;28;20041;-94
2021/10/25 09:00:42;;;;;;;7.07;3.83;;;;;;;14.57;49.73;99198.59;5075376;28;20393;-94
2021/10/25 09:03:09;;;;;;;5.45;3.22;;;;;;;14.66;49.58;99216.13;5074536;28;20382;-94
2021/10/25 09:05:36;;;;;;;7.15;3.20;;;;;;;14.60;49.66;99206.53;5064866;28;20053;-93
2021/10/25 09:08:04;;;;;;;8.35;3.80;;;;;;;14.81;48.50;99199.50;5076418;28;20103;-95
2021/10/25 09:10:33;;;;;;;8.20;3.55;;;;;;;14.70;49.22;99205.28;5076660;28;20037;-95
2021/10/25 09:13:02;;;;;;;9.30;3.40;;;;;;;14.64;48.89;99189.44;5075846;28;20049;-96
2021/10/25 09:15:31;;;;;;;5.72;3.10;;;;;;;14.91;48.97;99210.75;5074978;28;20286;-94
2021/10/25 09:17:59;;;;;;;9.68;3.35;;;;;;;15.20;48.41;99201.59;5075995;28;20136;-94
2021/10/25 09:20:25;;;;;;;6.10;3.22;;;;;;;15.46;48.96;99199.69;5076291;28;20047;-96
2021/10/25 09:23:05;;;;;;;6.80;3.05;;;;;;;15.28;47.88;99183.41;5074530;28;20442;-94
2021/10/25 09:25:31;;;;;;;6.60;3.30;;;;;;;15.32;49.38;99197.56;5069791;28;20045;-94
2021/10/25 09:27:57;;;;;;;9.35;4.10;;;;;;;15.43;48.64;99208.72;5075863;28;20135;-95
2021/10/25 09:30:25;;;;;;;6.75;3.40;;;;;;;15.66;47.81;99199.75;5076408;28;20147;-96
2021/10/25 09:32:53;;;;;;;7.05;3.42;;;;;;;15.27;48.18;99199.56;5074841;28;20102;-92
2021/10/25 09:50:25;;;;;;;7.35;3.90;;;;;;;15.85;48.54;99197.22;5104233;27;20367;-95
2021/10/25 09:52:51;;;;;;;5.60;3.63;;;;;;;15.95;48.13;99211.13;5097580;28;20040;-94
2021/10/25 09:55:19;;;;;;;8.13;3.85;;;;;;;16.09;47.12;99206.06;5110661;28;20159;-94
2021/10/25 10:00:32;;;;;;;6.47;3.50;;;;;;;16.15;46.81;99203.09;5072806;27;20383;-94
2021/10/25 10:02:59;;;;;;;7.57;3.25;;;;;;;16.35;46.50;99198.66;5072903;28;20722;-93
2021/10/25 10:05:27;;;;;;;8.05;4.20;;;;;;;15.94;46.91;99210.25;5063398;28;20494;-92
2021/10/25 10:07:53;;;;;;;9.43;3.88;;;;;;;16.19;46.55;99193.09;5074088;28;20403;-94
2021/10/25 10:13:23;;;;;;;7.60;3.83;;;;;;;16.57;45.93;99203.97;5114927;27;20381;-94
2021/10/25 10:15:50;;;;;;;8.13;3.65;;;;;;;16.45;45.80;99194.66;5113014;28;20374;-94
2021/10/25 10:18:19;;;;;;;7.07;3.70;;;;;;;16.62;47.11;99192.06;5114312;28;20497;-95
2021/10/25 10:20:49;;;;;;;7.93;3.60;;;;;;;16.82;45.56;99190.34;5112906;28;20040;-93
2021/10/25 10:23:18;;;;;;;8.60;3.65;;;;;;;16.76;45.32;99185.19;5114234;28;20043;-94
2021/10/25 10:25:50;;;;;;;10.93;3.63;;;;;;;16.66;45.37;99184.78;5114414;28;20056;-93
2021/10/25 10:28:19;;;;;;;7.90;4.28;;;;;;;16.71;44.99;99166.63;5113822;28;20047;-94
2021/10/25 10:30:53;;;;;;;;;;;;;;;16.58;45.94;99193.16;5114011;28;20497;-95
2021/10/25 10:33:30;;;;;;;8.48;3.60;;;;;;;16.52;45.62;99180.00;5113392;28;19986;-95
2021/10/25 10:35:55;;;;;;;9.32;3.60;;;;;;;16.62;46.39;99186.72;5113246;28;20490;-94
2021/10/25 10:38:29;;;;;;;6.78;3.50;;;;;;;16.70;45.60;99172.06;5113846;28;20077;-95
2021/10/25 10:40:55;;;;;;;8.35;3.67;;;;;;;16.67;46.05;99158.78;5113592;28;20040;-94
2021/10/25 10:43:22;;;;;;;6.47;3.90;;;;;;;16.80;45.89;99160.84;5115586;28;20074;-95
2021/10/25 10:45:58;;;;;;;8.38;3.53;;;;;;;16.86;46.32;99153.47;5116753;28;20066;-96
2021/10/25 10:48:26;;;;;;;9.60;3.60;;;;;;;16.88;45.82;99155.13;5118261;28;20048;-94
2021/10/25 10:51:00;;;;;;;8.55;3.38;;;;;;;16.97;44.86;99154.69;5117951;28;20047;-93
2021/10/25 10:53:31;;;;;;;12.40;3.92;;;;;;;16.84;45.58;99149.03;5116231;28;20065;-92
2021/10/25 10:56:02;;;;;;;7.65;3.90;;;;;;;16.68;45.71;99128.31;5115881;28;20065;-94
2021/10/25 11:01:35;;;;;;;7.10;3.63;;;;;;;16.83;45.56;99136.56;5117082;27;20380;-94
2021/10/25 11:04:04;;;;;;;8.20;4.13;;;;;;;16.76;45.92;99134.19;5116840;28;20048;-95
2021/10/25 11:06:32;;;;;;;7.95;3.42;;;;;;;16.77;46.12;99125.19;5115874;28;20287;-94
2021/10/25 11:08:58;;;;;;;8.20;4.18;;;;;;;16.61;45.78;99128.59;5115674;28;20047;-95
2021/10/25 11:11:24;;;;;;;8.38;3.78;;;;;;;16.80;46.07;99160.00;5116595;28;20107;-95
2021/10/25 11:20:00;;;;;;;6.35;3.83;;;;;;;16.93;45.32;99120.00;5117701;27;20870;-92
2021/10/25 11:22:31;;;;;;;9.43;3.70;;;;;;;17.12;45.74;99130.75;5117225;28;20478;-94
2021/10/25 11:24:57;;;;;;;9.68;3.70;;;;;;;17.18;44.92;99117.03;5117663;28;20066;-94
2021/10/25 11:27:31;;;;;;;8.30;3.70;;;;;;;17.02;45.84;99119.56;5117398;28;20040;-95
2021/10/25 11:30:08;;;;;;;8.52;4.03;;;;;;;17.25;45.47;99142.63;5115799;28;20040;-95
2021/10/25 11:32:35;;;;;;;7.45;4.40;;;;;;;17.11;45.11;99116.44;5115321;28;20047;-94
2021/10/25 11:35:05;;;;;;;8.13;4.05;;;;;;;17.16;45.94;99129.66;5115415;28;20052;-94
2021/10/25 11:37:31;;;;;;;9.68;4.45;;;;;;;17.09;46.24;99125.50;5115148;28;20040;-94
2021/10/25 11:43:01;;;;;;;9.75;4.10;;;;;;;17.13;46.22;99137.84;5136410;27;20388;-95
2021/10/25 11:45:27;;;;;;;8.52;3.78;;;;;;;17.00;46.31;99114.28;5135894;27;20155;-94
2021/10/25 11:47:53;;;;;;;6.63;3.97;;;;;;;17.20;45.71;99134.81;5135960;27;20039;-94
2021/10/25 11:50:21;;;;;;;8.65;4.00;;;;;;;17.29;46.22;99121.88;5136569;27;20047;-95
2021/10/25 11:52:53;;;;;;;10.43;3.83;;;;;;;17.48;46.06;99121.81;5136117;27;20036;-92
2021/10/25 11:55:24;;;;;;;8.90;4.47;;;;;;;17.28;45.86;99123.66;5135879;27;20069;-95
2021/10/25 11:57:51;;;;;;;6.90;3.53;;;;;;;17.28;46.05;99112.91;5136963;27;20069;-94
2021/10/25 12:00:21;;;;;;;6.72;3.92;;;;;;;17.25;46.19;99131.88;5137349;27;20048;-94
2021/10/25 12:02:48;;;;;;;8.63;4.05;;;;;;;17.15;46.27;99119.84;5135349;27;20039;-94
2021/10/25 12:05:18;;;;;;;10.18;4.13;;;;;;;17.03;46.00;99110.56;5135079;27;20404;-95
2021/10/25 12:07:48;;;;;;;7.30;3.60;;;;;;;17.25;45.11;99121.13;5134018;27;20047;-94
2021/10/25 12:10:14;;;;;;;10.68;4.20;;;;;;;17.20;45.63;99112.44;5136058;28;20070;-95
2021/10/25 12:12:40;;;;;;;7.45;3.92;;;;;;;17.24;46.25;99122.09;5136493;27;20036;-93
2021/10/25 12:15:11;;;;;;;11.57;4.47;;;;;;;16.97;45.66;99098.28;5134621;27;20069;-93
2021/10/25 12:17:39;;;;;;;7.68;3.50;;;;;;;16.93;46.74;99104.75;5134884;27;20144;-94
2021/10/25 12:20:07;;;;;;;5.65;3.58;;;;;;;16.93;46.82;99125.38;5133948;27;20044;-94
2021/10/25 12:22:34;;;;;;;6.88;4.13;;;;;;;17.08;46.51;99123.78;5133587;27;20438;-93
2021/10/25 12:25:01;;;;;;;10.27;4.60;;;;;;;16.94;47.06;99124.44;5134939;27;20042;-92
2021/10/25 12:30:29;;;;;;;7.82;3.85;;;;;;;17.10;47.64;99121.88;5154446;27;20369;-94
2021/10/25 12:32:58;;;;;;;9.82;4.30;;;;;;;17.06;48.00;99115.78;5155324;27;20057;-95
2021/10/25 12:35:38;;;;;;;6.68;3.85;;;;;;;17.18;47.20;99122.38;5155016;27;20042;-95
2021/10/25 12:38:09;;;;;;;8.45;4.20;;;;;;;17.08;47.40;99104.97;5148140;27;20099;-94
2021/10/25 12:41:00;;;;;;;9.50;4.57;;;;;;;17.14;47.48;99124.34;5154834;27;20126;-94
2021/10/25 12:43:37;;;;;;;6.80;3.95;;;;;;;17.29;47.03;99109.28;5156112;27;20420;-94
2021/10/25 12:46:07;;;;;;;8.75;4.40;;;;;;;17.46;47.36;99103.09;5157390;27;20047;-95
2021/10/25 12:48:41;;;;;;;11.00;4.68;;;;;;;17.42;47.20;99109.56;5154849;27;20075;-93
2021/10/25 12:51:07;;;;;;;9.25;4.72;;;;;;;17.37;47.42;99108.91;5157904;27;20047;-93
2021/10/25 12:53:33;;;;;;;9.50;4.18;;;;;;;17.38;48.28;99103.47;5157272;27;20043;-93
2021/10/25 12:56:00;;;;;;;9.88;5.15;;;;;;;17.52;47.23;99089.34;5157374;27;20039;-93
2021/10/25 12:58:30;;;;;;;9.48;4.95;;;;;;;17.41;47.53;99106.00;5157423;27;20046;-94
2021/10/25 13:01:37;;;;;;;;;;;;;;;;;;;;;
2021/10/25 13:04:22;;;;;;;6.70;4.10;;;;;;;17.51;47.76;99087.59;5157262;27;20039;-94
2021/10/25 13:06:49;;;;;;;8.10;4.00;;;;;;;17.28;48.41;99071.72;5159240;27;20050;-95
2021/10/25 13:09:15;;;;;;;10.77;4.05;;;;;;;17.39;48.32;99067.56;5159674;27;20130;-95
2021/10/25 13:11:45;;;;;;;7.53;4.57;;;;;;;17.40;47.91;99079.19;5159063;27;20047;-96
2021/10/25 13:14:12;;;;;;;8.75;4.30;;;;;;;17.42;48.63;99069.22;5158852;27;20096;-94
2021/10/25 13:19:40;;;;;;;11.32;5.00;;;;;;;17.40;48.05;99092.63;5090932;27;20382;-95
2021/10/25 13:22:10;;;;;;;8.30;4.30;;;;;;;17.24;47.47;99065.66;5097640;28;20481;-96
2021/10/25 13:24:39;;;;;;;8.77;4.38;;;;;;;17.07;47.47;99069.16;5100340;28;20036;-96
2021/10/25 13:27:06;;;;;;;7.85;4.53;;;;;;;17.04;48.04;99070.19;5077585;28;20110;-95
2021/10/25 13:29:32;;;;;;;10.38;4.30;;;;;;;16.99;48.67;99084.78;5078132;28;20037;-95
2021/10/25 13:31:59;;;;;;;10.30;4.72;;;;;;;16.76;49.47;99080.47;5077308;28;20055;-96
2021/10/25 13:34:25;;;;;;;9.10;4.30;;;;;;;16.93;49.62;99093.13;5078789;28;20052;-94
2021/10/25 13:36:53;;;;;;;7.07;4.60;;;;;;;16.93;49.95;99085.94;5081116;28;20096;-96
2021/10/25 13:39:22;;;;;;;9.98;4.97;;;;;;;16.63;50.43;99077.47;5086453;28;20040;-95
2021/10/25 13:41:52;;;;;;;9.38;4.18;;;;;;;16.70;49.68;99062.84;5094999;28;20040;-95
2021/10/25 13:44:18;;;;;;;8.80;4.78;;;;;;;16.74;50.22;99088.63;5058365;28;20041;-94
2021/10/25 13:46:44;;;;;;;10.63;4.70;;;;;;;16.68;50.33;99074.63;5084012;28;20051;-96
2021/10/25 13:49:10;;;;;;;8.88;4.45;;;;;;;16.56;50.45;99089.47;5077148;28;20564;-96
2021/10/25 13:51:36;;;;;;;9.02;4.80;;;;;;;16.57;51.03;99086.72;5078554;28;20076;-95
2021/10/25 13:54:06;;;;;;;9.40;4.68;;;;;;;16.61;51.02;99093.69;5077717;28;20036;-95
2021/10/25 13:56:31;;;;;;;;;;;;;;;16.58;51.42;99096.50;5077662;28;20124;-96
2021/10/25 13:58:57;;;;;;;9.45;4.57;;;;;;;16.60;51.57;99091.06;5086659;28;19983;-95
2021/10/25 14:01:24;;;;;;;13.98;4.93;;;;;;;16.50;52.13;99071.81;5097594;28;20066;-96
2021/10/25 14:03:51;;;;;;;7.45;4.75;;;;;;;16.39;52.02;99076.81;5098376;28;20052;-95
2021/10/25 14:06:18;;;;;;;12.90;6.65;;;;;;;16.43;52.40;99083.78;5097818;28;20079;-95
2021/10/25 14:08:47;;;;;;;11.20;5.28;;;;;;;16.40;51.93;99078.56;5091219;28;20046;-95
2021/10/25 14:11:15;;;;;;;8.07;5.22;;;;;;;16.18;53.26;99067.94;5079156;28;20045;-95
2021/10/25 14:19:54;;;;;;;10.73;5.30;;;;;;;16.16;53.08;99077.88;5160069;27;20379;-95
2021/10/25 14:22:21;;;;;;;9.10;5.40;;;;;;;16.05;53.42;99070.31;5160175;27;20045;-95
2021/10/25 14:24:47;;;;;;;12.80;6.85;;;;;;;16.19;54.36;99083.94;5162155;27;20082;-94